createdAt,value
2019-02-04T00:00:42.466Z,38.98
2019-02-04T00:03:12.727Z,31.55
2019-02-04T00:05:41.676Z,32.38
2019-02-04T00:08:10.651Z,35.23
2019-02-04T00:10:39.810Z,37.98
2019-02-04T00:13:08.633Z,30.27
2019-02-04T00:15:37.879Z,36.90
2019-02-04T00:18:07.159Z,37.15
2019-02-04T00:20:36.221Z,34.48
2019-02-04T00:23:05.236Z,38.85
2019-02-04T00:25:34.552Z,33.75
2019-02-04T00:28:03.434Z,37.55
2019-02-04T00:30:32.578Z,32.67
2019-02-04T00:33:01.579Z,34.38
2019-02-04T00:35:30.357Z,38.17
2019-02-04T00:37:59.243Z,32.75
2019-02-04T00:40:30.699Z,42.62
2019-02-04T00:42:59.562Z,38.40
2019-02-04T00:45:28.640Z,40.05
2019-02-04T00:47:57.402Z,33.50
2019-02-04T00:50:26.331Z,37.83
2019-02-04T00:52:55.407Z,53.08
2019-02-04T00:55:24.527Z,39.35
2019-02-04T00:57:53.328Z,38.50
2019-02-04T01:00:26.733Z,37.80
2019-02-04T01:02:56.089Z,45.05
2019-02-04T01:05:25.419Z,34.18
2019-02-04T01:07:55.039Z,40.83
2019-02-04T01:10:25.561Z,47.03
2019-02-04T01:12:54.667Z,40.05
2019-02-04T01:15:23.422Z,44.77
2019-02-04T01:17:52.312Z,36.93
2019-02-04T01:20:23.650Z,41.28
2019-02-04T01:22:53.088Z,42.38
2019-02-04T01:25:22.102Z,41.73
2019-02-04T01:27:50.976Z,38.67
2019-02-04T01:30:20.634Z,36.38
2019-02-04T01:32:49.629Z,45.00
2019-02-04T01:35:18.643Z,35.05
2019-02-04T01:37:47.774Z,43.42
2019-02-04T01:40:18.908Z,39.90
2019-02-04T01:42:48.182Z,39.25
2019-02-04T01:45:17.043Z,35.45
2019-02-04T01:47:45.944Z,35.88
2019-02-04T01:50:16.750Z,35.83
2019-02-04T01:52:45.647Z,38.85
2019-02-04T01:55:14.589Z,35.10
2019-02-04T01:57:43.988Z,31.45
2019-02-04T02:00:18.535Z,37.58
2019-02-04T02:02:47.307Z,33.45
2019-02-04T02:05:16.512Z,34.78
2019-02-04T02:07:45.411Z,41.35
2019-02-04T02:10:17.132Z,41.85
2019-02-04T02:12:46.406Z,31.48
2019-02-04T02:15:15.317Z,31.23
2019-02-04T02:17:44.392Z,29.55
2019-02-04T02:20:15.740Z,32.85
2019-02-04T02:22:44.941Z,32.80
2019-02-04T02:25:13.803Z,31.27
2019-02-04T02:27:42.659Z,28.80
2019-02-04T02:30:14.984Z,33.73
2019-02-04T02:32:43.859Z,33.38
2019-02-04T02:35:12.778Z,30.30
2019-02-04T02:37:41.826Z,30.72
2019-02-04T02:40:25.638Z,32.58
2019-02-04T02:42:54.762Z,28.12
2019-02-04T02:45:23.822Z,30.90
2019-02-04T02:47:52.687Z,33.13
2019-02-04T02:50:21.607Z,33.92
2019-02-04T02:52:50.439Z,37.23
2019-02-04T02:55:19.231Z,29.57
2019-02-04T02:57:48.094Z,25.82
2019-02-04T03:00:19.271Z,33.00
2019-02-04T03:02:48.451Z,33.10
2019-02-04T03:05:18.399Z,38.90
2019-02-04T03:07:47.179Z,29.15
2019-02-04T03:10:18.824Z,33.15
2019-02-04T03:12:47.928Z,32.05
2019-02-04T03:15:16.842Z,34.78
2019-02-04T03:17:51.880Z,31.77
2019-02-04T03:20:16.283Z,29.20
2019-02-04T03:22:45.054Z,27.50
2019-02-04T03:25:13.970Z,27.77
2019-02-04T03:27:43.187Z,34.35
2019-02-04T03:30:16.232Z,28.10
2019-02-04T03:32:45.002Z,32.23
2019-02-04T03:35:14.265Z,34.63
2019-02-04T03:37:43.233Z,26.55
2019-02-04T03:40:14.302Z,32.88
2019-02-04T03:42:43.223Z,37.93
2019-02-04T03:45:12.406Z,30.00
2019-02-04T03:47:41.365Z,25.55
2019-02-04T03:50:13.505Z,30.37
2019-02-04T03:52:42.419Z,27.77
2019-02-04T03:55:12.100Z,31.73
2019-02-04T03:57:40.950Z,28.25
2019-02-04T04:00:21.874Z,35.65
2019-02-04T04:02:51.511Z,33.88
2019-02-04T04:05:20.430Z,35.75
2019-02-04T04:07:49.278Z,27.87
2019-02-04T04:10:18.198Z,26.45
2019-02-04T04:12:47.285Z,29.75
2019-02-04T04:15:17.076Z,32.33
2019-02-04T04:17:46.062Z,37.45
2019-02-04T04:20:16.020Z,29.25
2019-02-04T04:22:45.010Z,33.25
2019-02-04T04:25:14.880Z,28.12
2019-02-04T04:27:44.227Z,27.00
2019-02-04T04:30:16.568Z,33.98
2019-02-04T04:32:45.502Z,40.63
2019-02-04T04:35:14.773Z,34.75
2019-02-04T04:37:44.160Z,29.45
2019-02-04T04:40:13.201Z,27.85
2019-02-04T04:42:42.110Z,31.23
2019-02-04T04:45:13.026Z,44.63
2019-02-04T04:47:41.820Z,31.60
2019-02-04T04:50:11.456Z,36.80
2019-02-04T04:52:40.373Z,41.80
2019-02-04T04:55:10.719Z,27.35
2019-02-04T04:57:39.668Z,33.08
2019-02-04T05:00:11.504Z,37.80
2019-02-04T05:02:40.650Z,37.60
2019-02-04T05:05:10.469Z,33.70
2019-02-04T05:07:39.342Z,36.80
2019-02-04T05:10:09.768Z,35.30
2019-02-04T05:12:38.647Z,37.83
2019-02-04T05:15:09.048Z,27.37
2019-02-04T05:17:38.343Z,36.05
2019-02-04T05:20:11.847Z,30.08
2019-02-04T05:22:41.244Z,30.90
2019-02-04T05:25:10.475Z,40.05
2019-02-04T05:27:39.566Z,35.58
2019-02-04T05:30:11.303Z,34.20
2019-02-04T05:32:40.411Z,34.92
2019-02-04T05:35:09.578Z,30.55
2019-02-04T05:37:38.463Z,29.23
2019-02-04T05:40:09.207Z,34.05
2019-02-04T05:42:38.011Z,34.78
2019-02-04T05:45:08.332Z,33.53
2019-02-04T05:47:37.099Z,28.52
2019-02-04T05:50:07.545Z,27.10
2019-02-04T05:52:36.463Z,33.50
2019-02-04T05:55:05.772Z,34.85
2019-02-04T05:57:34.626Z,37.60
2019-02-04T06:00:03.683Z,26.97
2019-02-04T06:02:32.431Z,35.92
2019-02-04T06:05:01.564Z,29.60
2019-02-04T06:07:30.880Z,27.17
2019-02-04T06:09:59.945Z,30.43
2019-02-04T06:12:28.870Z,27.75
2019-02-04T06:14:57.763Z,27.13
2019-02-04T06:17:26.603Z,27.60
2019-02-04T06:19:55.374Z,27.37
2019-02-04T06:22:24.523Z,31.95
2019-02-04T06:24:53.651Z,28.45
2019-02-04T06:27:22.791Z,26.55
2019-02-04T06:29:52.050Z,29.27
2019-02-04T06:32:20.839Z,30.88
2019-02-04T06:34:49.921Z,29.30
2019-02-04T06:37:18.796Z,35.17
2019-02-04T06:39:47.898Z,34.10
2019-02-04T06:42:16.697Z,30.40
2019-02-04T06:44:45.544Z,30.23
2019-02-04T06:47:15.922Z,30.30
2019-02-04T06:49:44.984Z,25.90
2019-02-04T06:52:13.856Z,33.40
2019-02-04T06:54:42.729Z,26.12
2019-02-04T06:57:11.560Z,28.15
2019-02-04T06:59:40.585Z,28.05
2019-02-04T07:02:09.551Z,31.60
2019-02-04T07:04:38.644Z,28.32
2019-02-04T07:07:07.414Z,32.88
2019-02-04T07:09:36.221Z,26.60
2019-02-04T07:12:05.445Z,31.68
2019-02-04T07:14:34.790Z,29.45
2019-02-04T07:17:03.794Z,28.70
2019-02-04T07:19:32.868Z,27.67
2019-02-04T07:22:01.882Z,32.23
2019-02-04T07:24:42.172Z,22.58
2019-02-04T07:27:01.191Z,24.72
2019-02-04T07:29:30.014Z,24.35
2019-02-04T07:31:59.266Z,20.62
2019-02-04T07:34:28.139Z,26.07
2019-02-04T07:36:56.986Z,21.52
2019-02-04T07:39:25.783Z,24.85
2019-02-04T07:41:54.973Z,26.60
2019-02-04T07:44:24.135Z,24.43
2019-02-04T07:46:53.070Z,23.10
2019-02-04T07:49:21.906Z,24.85
2019-02-04T07:51:50.714Z,25.52
2019-02-04T07:54:19.656Z,23.83
2019-02-04T07:56:48.547Z,20.85
2019-02-04T07:59:17.743Z,20.60
2019-02-04T08:01:46.735Z,20.35
2019-02-04T08:04:15.483Z,18.15
2019-02-04T08:06:44.258Z,20.52
2019-02-04T08:09:13.101Z,19.05
2019-02-04T08:11:41.935Z,25.27
2019-02-04T08:14:11.236Z,15.10
2019-02-04T08:16:40.109Z,18.37
2019-02-04T08:19:08.900Z,20.45
2019-02-04T08:21:37.806Z,20.02
2019-02-04T08:24:06.681Z,21.52
2019-02-04T08:26:35.539Z,15.65
2019-02-04T08:29:04.913Z,18.30
2019-02-04T08:31:33.898Z,15.72
2019-02-04T08:34:03.180Z,20.27
2019-02-04T08:36:43.035Z,14.93
2019-02-04T08:39:03.367Z,13.95
2019-02-04T08:41:32.292Z,16.85
2019-02-04T08:44:01.414Z,11.85
2019-02-04T08:46:30.274Z,12.82
2019-02-04T08:48:59.106Z,11.68
2019-02-04T08:51:28.051Z,11.10
2019-02-04T08:53:57.129Z,9.90
2019-02-04T08:56:26.129Z,12.60
2019-02-04T08:58:55.048Z,10.08
2019-02-04T09:01:23.962Z,10.10
2019-02-04T09:03:52.800Z,18.52
2019-02-04T09:06:21.727Z,10.13
2019-02-04T09:08:50.565Z,15.65
2019-02-04T09:11:19.732Z,10.15
2019-02-04T09:13:48.827Z,12.28
2019-02-04T09:16:18.181Z,11.30
2019-02-04T09:18:47.017Z,11.65
2019-02-04T09:21:15.787Z,11.18
2019-02-04T09:23:44.880Z,12.88
2019-02-04T09:26:14.077Z,13.98
2019-02-04T09:28:42.939Z,14.25
2019-02-04T09:31:12.054Z,13.68
2019-02-04T09:33:40.908Z,10.35
2019-02-04T09:36:09.904Z,11.08
2019-02-04T09:38:39.040Z,10.25
2019-02-04T09:41:08.347Z,14.25
2019-02-04T09:43:37.131Z,13.13
2019-02-04T09:46:06.335Z,19.12
2019-02-04T09:48:35.385Z,11.60
2019-02-04T09:51:04.490Z,17.10
2019-02-04T09:53:33.346Z,12.63
2019-02-04T09:56:02.752Z,13.03
2019-02-04T09:58:31.859Z,13.00
2019-02-04T10:01:00.834Z,11.30
2019-02-04T10:03:29.900Z,13.03
2019-02-04T10:05:58.952Z,15.20
2019-02-04T10:08:28.047Z,17.40
2019-02-04T10:10:56.893Z,18.50
2019-02-04T10:13:25.777Z,17.05
2019-02-04T10:15:54.762Z,17.80
2019-02-04T10:18:23.939Z,16.85
2019-02-04T10:20:53.057Z,17.35
2019-02-04T10:23:21.882Z,17.32
2019-02-04T10:25:50.773Z,14.63
2019-02-04T10:28:19.682Z,12.85
2019-02-04T10:30:48.602Z,16.35
2019-02-04T10:33:17.691Z,11.30
2019-02-04T10:35:46.626Z,14.55
2019-02-04T10:38:16.514Z,16.20
2019-02-04T10:40:45.594Z,12.80
2019-02-04T10:43:14.468Z,12.78
2019-02-04T10:45:43.342Z,9.90
2019-02-04T10:48:12.500Z,14.65
2019-02-04T10:50:46.361Z,10.75
2019-02-04T10:53:12.623Z,10.45
2019-02-04T10:55:41.551Z,10.60
2019-02-04T10:58:11.694Z,16.50
2019-02-04T11:00:41.286Z,9.80
2019-02-04T11:03:10.207Z,13.83
2019-02-04T11:05:39.747Z,15.72
2019-02-04T11:08:09.617Z,11.70
2019-02-04T11:10:38.635Z,14.68
2019-02-04T11:13:09.914Z,25.97
2019-02-04T11:15:39.000Z,14.33
2019-02-04T11:18:08.346Z,23.85
2019-02-04T11:20:37.644Z,19.37
2019-02-04T11:23:08.414Z,20.23
2019-02-04T11:25:37.437Z,14.93
2019-02-04T11:28:07.742Z,18.02
2019-02-04T11:30:42.656Z,21.70
2019-02-04T11:33:11.648Z,16.02
2019-02-04T11:35:40.592Z,12.58
2019-02-04T11:38:09.828Z,10.55
2019-02-04T11:40:39.323Z,15.55
2019-02-04T11:43:08.344Z,15.60
2019-02-04T11:45:37.571Z,19.27
2019-02-04T11:48:08.617Z,13.32
2019-02-04T11:50:37.771Z,25.80
2019-02-04T11:53:06.816Z,17.02
2019-02-04T11:55:35.776Z,10.72
2019-02-04T11:58:07.932Z,11.95
2019-02-04T12:00:36.366Z,9.50
2019-02-04T12:03:05.568Z,9.53
2019-02-04T12:05:34.483Z,14.83
2019-02-04T12:08:03.359Z,16.80
2019-02-04T12:10:38.247Z,10.85
2019-02-04T12:13:07.439Z,14.87
2019-02-04T12:15:36.658Z,12.45
2019-02-04T12:18:06.144Z,9.30
2019-02-04T12:20:35.598Z,10.10
2019-02-04T12:23:04.803Z,11.30
2019-02-04T12:25:34.029Z,9.55
2019-02-04T12:28:02.966Z,14.90
2019-02-04T12:30:33.858Z,10.18
2019-02-04T12:33:04.025Z,13.18
2019-02-04T12:35:33.154Z,10.28
2019-02-04T12:38:02.275Z,12.45
2019-02-04T12:40:31.333Z,13.18
2019-02-04T12:43:00.288Z,10.40
2019-02-04T12:45:31.036Z,12.60
2019-02-04T12:48:00.813Z,12.43
2019-02-04T12:50:30.156Z,9.55
2019-02-04T12:52:59.042Z,12.75
2019-02-04T12:55:29.115Z,11.10
2019-02-04T12:57:58.043Z,12.15
2019-02-04T13:00:28.155Z,11.45
2019-02-04T13:02:57.291Z,7.50
2019-02-04T13:05:40.627Z,12.40
2019-02-04T13:08:09.876Z,10.48
2019-02-04T13:10:39.020Z,7.28
2019-02-04T13:13:10.135Z,8.58
2019-02-04T13:15:39.254Z,7.85
2019-02-04T13:18:08.412Z,7.55
2019-02-04T13:20:37.638Z,10.78
2019-02-04T13:23:06.611Z,6.90
2019-02-04T13:25:35.569Z,7.60
2019-02-04T13:28:05.452Z,11.03
2019-02-04T13:30:34.375Z,6.87
2019-02-04T13:33:03.320Z,6.00
2019-02-04T13:35:32.219Z,8.73
2019-02-04T13:38:01.055Z,5.47
2019-02-04T13:40:30.207Z,6.22
2019-02-04T13:42:59.383Z,6.62
2019-02-04T13:45:28.721Z,5.70
2019-02-04T13:47:57.735Z,8.60
2019-02-04T13:50:26.851Z,5.95
2019-02-04T13:52:55.709Z,7.58
2019-02-04T13:55:29.567Z,5.75
2019-02-04T13:57:58.443Z,4.60
2019-02-04T14:00:27.635Z,8.25
2019-02-04T14:02:59.231Z,8.08
2019-02-04T14:05:31.153Z,5.00
2019-02-04T14:07:59.124Z,6.35
2019-02-04T14:10:33.198Z,4.55
2019-02-04T14:13:02.102Z,5.70
2019-02-04T14:15:35.289Z,8.85
2019-02-04T14:18:03.052Z,4.67
2019-02-04T14:20:31.826Z,6.65
2019-02-04T14:23:00.663Z,6.15
2019-02-04T14:25:29.677Z,4.35
2019-02-04T14:27:58.455Z,3.98
2019-02-04T14:30:30.021Z,4.37
2019-02-04T14:32:59.078Z,6.53
2019-02-04T14:35:27.974Z,5.22
2019-02-04T14:37:57.000Z,5.58
2019-02-04T14:40:26.268Z,5.45
2019-02-04T14:43:01.584Z,3.40
2019-02-04T14:45:48.236Z,7.25
2019-02-04T14:49:07.364Z,6.25
2019-02-04T14:51:49.227Z,8.23
2019-02-04T14:54:38.031Z,3.83
2019-02-04T14:57:44.687Z,3.92
2019-02-04T15:00:55.271Z,2.77
2019-02-04T15:03:45.378Z,3.70
2019-02-04T15:06:40.162Z,5.55
2019-02-04T15:09:28.591Z,4.20
2019-02-04T15:12:30.110Z,5.97
2019-02-04T15:15:25.849Z,4.90
2019-02-04T15:18:28.861Z,7.33
2019-02-04T15:21:25.735Z,6.70
2019-02-04T15:24:36.235Z,5.20
2019-02-04T15:27:36.731Z,3.62
2019-02-04T15:30:31.547Z,6.53
2019-02-04T15:33:21.276Z,5.33
2019-02-04T15:36:29.789Z,4.20
2019-02-04T15:39:09.543Z,5.45
2019-02-04T15:41:49.180Z,3.95
2019-02-04T15:44:29.468Z,3.77
2019-02-04T15:47:22.550Z,6.22
2019-02-04T15:50:22.789Z,3.05
2019-02-04T15:52:51.915Z,4.12
2019-02-04T15:55:21.163Z,4.35
2019-02-04T15:57:50.092Z,3.22
2019-02-04T16:00:19.431Z,4.35
2019-02-04T16:02:48.264Z,4.42
2019-02-04T16:05:17.356Z,3.47
2019-02-04T16:07:46.228Z,4.35
2019-02-04T16:10:19.218Z,7.92
2019-02-04T16:12:52.853Z,8.00
2019-02-04T16:15:21.954Z,3.87
2019-02-04T16:17:50.997Z,3.85
2019-02-04T16:20:26.696Z,6.08
2019-02-04T16:22:58.887Z,4.70
2019-02-04T16:25:26.702Z,7.00
2019-02-04T16:28:00.426Z,5.55
2019-02-04T16:30:29.233Z,3.80
2019-02-04T16:32:58.456Z,5.58
2019-02-04T16:35:27.462Z,6.90
2019-02-04T16:37:56.203Z,6.95
2019-02-04T16:40:24.994Z,10.20
2019-02-04T16:42:55.170Z,7.45
2019-02-04T16:45:24.551Z,8.75
2019-02-04T16:47:54.060Z,12.85
2019-02-04T16:50:25.241Z,6.45
2019-02-04T16:52:54.511Z,7.00
2019-02-04T16:55:23.467Z,6.25
2019-02-04T16:57:54.439Z,7.87
2019-02-04T17:00:25.182Z,6.70
2019-02-04T17:02:55.971Z,9.90
2019-02-04T17:05:25.649Z,7.17
2019-02-04T17:07:54.696Z,12.73
2019-02-04T17:10:23.888Z,9.83
2019-02-04T17:12:52.757Z,12.37
2019-02-04T17:15:21.579Z,10.60
2019-02-04T17:17:50.368Z,10.58
2019-02-04T17:20:21.603Z,8.05
2019-02-04T17:22:50.564Z,12.05
2019-02-04T17:25:19.455Z,9.85
2019-02-04T17:27:48.303Z,10.03
2019-02-04T17:30:19.517Z,9.25
2019-02-04T17:32:48.748Z,9.60
2019-02-04T17:35:17.751Z,9.85
2019-02-04T17:37:46.784Z,11.53
2019-02-04T17:40:17.922Z,9.60
2019-02-04T17:42:47.139Z,8.75
2019-02-04T17:45:16.936Z,9.85
2019-02-04T17:47:47.186Z,7.60
2019-02-04T17:50:17.679Z,9.13
2019-02-04T17:52:46.943Z,13.10
2019-02-04T17:55:17.894Z,9.08
2019-02-04T17:57:46.741Z,11.15
2019-02-04T18:00:21.673Z,10.35
2019-02-04T18:02:50.902Z,13.53
2019-02-04T18:05:20.298Z,10.58
2019-02-04T18:07:49.656Z,13.70
2019-02-04T18:10:18.645Z,11.78
2019-02-04T18:12:47.871Z,8.28
2019-02-04T18:15:17.732Z,10.55
2019-02-04T18:17:46.560Z,7.85
2019-02-04T18:20:16.162Z,14.10
2019-02-04T18:22:45.123Z,13.50
2019-02-04T18:25:14.892Z,10.23
2019-02-04T18:27:43.750Z,12.88
2019-02-04T18:30:15.426Z,10.15
2019-02-04T18:32:44.380Z,10.20
2019-02-04T18:35:13.606Z,13.60
2019-02-04T18:37:42.820Z,11.48
2019-02-04T18:40:13.707Z,8.60
2019-02-04T18:42:43.267Z,8.80
2019-02-04T18:45:20.610Z,11.00
2019-02-04T18:47:49.619Z,10.70
2019-02-04T18:50:20.014Z,16.27
2019-02-04T18:52:49.238Z,16.17
2019-02-04T18:55:20.739Z,8.23
2019-02-04T18:57:49.801Z,9.48
2019-02-04T19:00:21.026Z,11.85
2019-02-04T19:02:50.196Z,11.78
2019-02-04T19:05:20.395Z,8.60
2019-02-04T19:07:49.821Z,10.35
2019-02-04T19:10:19.666Z,10.32
2019-02-04T19:12:48.608Z,9.08
2019-02-04T19:15:19.539Z,10.25
2019-02-04T19:17:49.390Z,8.03
2019-02-04T19:20:20.459Z,10.30
2019-02-04T19:22:49.468Z,9.58
2019-02-04T19:25:18.800Z,9.73
2019-02-04T19:27:48.029Z,11.22
2019-02-04T19:30:23.144Z,13.22
2019-02-04T19:32:55.158Z,10.98
2019-02-04T19:35:24.126Z,9.90
2019-02-04T19:37:53.112Z,10.10
2019-02-04T19:40:22.092Z,8.58
2019-02-04T19:42:54.676Z,9.65
2019-02-04T19:45:24.410Z,7.58
2019-02-04T19:47:53.574Z,9.55
2019-02-04T19:50:25.666Z,11.60
2019-02-04T19:52:54.673Z,10.98
2019-02-04T19:55:23.798Z,8.65
2019-02-04T19:57:52.679Z,10.32
2019-02-04T20:00:21.716Z,7.92
2019-02-04T20:02:51.344Z,9.35
2019-02-04T20:05:21.414Z,9.68
2019-02-04T20:07:50.286Z,12.55
2019-02-04T20:10:22.163Z,10.05
2019-02-04T20:12:51.085Z,9.23
2019-02-04T20:15:22.228Z,9.50
2019-02-04T20:17:51.400Z,11.73
2019-02-04T20:20:20.449Z,9.20
2019-02-04T20:22:49.331Z,10.30
2019-02-04T20:25:23.247Z,8.35
2019-02-04T20:27:52.148Z,12.80
2019-02-04T20:30:29.927Z,8.33
2019-02-04T20:32:59.751Z,10.30
2019-02-04T20:35:29.041Z,13.45
2019-02-04T20:37:59.108Z,7.35
2019-02-04T20:40:28.387Z,9.28
2019-02-04T20:42:57.440Z,9.58
2019-02-04T20:45:26.796Z,13.62
2019-02-04T20:47:55.809Z,13.40
2019-02-04T20:50:27.504Z,16.20
2019-02-04T20:52:56.528Z,12.55
2019-02-04T20:55:25.492Z,13.15
2019-02-04T20:57:54.754Z,10.18
2019-02-04T21:00:25.677Z,9.20
2019-02-04T21:02:55.407Z,11.43
2019-02-04T21:05:24.843Z,9.80
2019-02-04T21:07:54.163Z,8.00
2019-02-04T21:10:24.235Z,6.87
2019-02-04T21:12:53.976Z,10.18
2019-02-04T21:15:23.483Z,10.72
2019-02-04T21:17:52.706Z,7.30
2019-02-04T21:20:23.145Z,11.55
2019-02-04T21:22:52.187Z,8.10
2019-02-04T21:25:21.989Z,8.35
2019-02-04T21:27:51.735Z,8.98
2019-02-04T21:30:22.953Z,8.05
2019-02-04T21:32:52.051Z,7.35
2019-02-04T21:35:21.274Z,8.23
2019-02-04T21:37:50.324Z,8.18
2019-02-04T21:40:19.898Z,9.18
2019-02-04T21:42:49.578Z,6.65
2019-02-04T21:45:20.068Z,8.73
2019-02-04T21:47:49.148Z,7.62
2019-02-04T21:50:22.256Z,10.63
2019-02-04T21:52:51.383Z,8.03
2019-02-04T21:55:20.877Z,8.63
2019-02-04T21:57:49.925Z,6.67
2019-02-04T22:00:24.573Z,8.30
2019-02-04T22:02:54.174Z,12.30
2019-02-04T22:05:24.600Z,5.75
2019-02-04T22:07:53.759Z,7.35
2019-02-04T22:10:23.821Z,6.03
2019-02-04T22:12:52.859Z,5.90
2019-02-04T22:15:21.926Z,8.78
2019-02-04T22:17:51.106Z,7.33
2019-02-04T22:20:20.339Z,7.15
2019-02-04T22:22:49.296Z,6.22
2019-02-04T22:25:20.301Z,5.55
2019-02-04T22:27:49.199Z,6.95
2019-02-04T22:30:23.040Z,8.93
2019-02-04T22:32:52.066Z,6.92
2019-02-04T22:35:20.860Z,6.33
2019-02-04T22:37:49.943Z,13.72
2019-02-04T22:40:24.115Z,5.92
2019-02-04T22:42:53.118Z,6.45
2019-02-04T22:45:22.346Z,6.20
2019-02-04T22:47:52.015Z,4.55
2019-02-04T22:50:25.794Z,5.60
2019-02-04T22:52:55.694Z,7.58
2019-02-04T22:55:31.996Z,5.15
2019-02-04T22:57:56.185Z,6.12
2019-02-04T23:00:44.284Z,5.20
2019-02-04T23:03:14.216Z,7.47
2019-02-04T23:05:43.112Z,6.97
2019-02-04T23:08:12.091Z,7.95
2019-02-04T23:10:41.775Z,8.68
2019-02-04T23:13:10.586Z,6.80
2019-02-04T23:15:39.499Z,5.65
2019-02-04T23:18:09.091Z,5.78
2019-02-04T23:20:38.116Z,4.67
2019-02-04T23:23:07.043Z,8.93
2019-02-04T23:25:43.116Z,7.00
2019-02-04T23:28:07.668Z,5.12
2019-02-04T23:30:36.962Z,8.25
2019-02-04T23:33:06.200Z,6.45
2019-02-04T23:35:35.691Z,6.90
2019-02-04T23:38:04.966Z,7.85
2019-02-04T23:40:33.963Z,5.50
2019-02-04T23:43:02.785Z,8.78
2019-02-04T23:45:32.338Z,6.65
2019-02-04T23:48:01.486Z,9.30
2019-02-04T23:50:30.659Z,9.18
2019-02-04T23:52:59.619Z,8.48
2019-02-04T23:55:28.448Z,6.53
2019-02-04T23:57:57.574Z,7.03
